sensor_id;sensor_type;location;lat;lon;timestamp;temperature;humidity
10312;DHT22;5201;48.776;9.128;2023-03-13T00:01:11;8.10;99.90
10312;DHT22;5201;48.776;9.128;2023-03-13T00:03:37;8.00;99.90
10312;DHT22;5201;48.776;9.128;2023-03-13T00:06:03;7.90;99.90
10312;DHT22;5201;48.776;9.128;2023-03-13T00:08:29;8.00;99.90
10312;DHT22;5201;48.776;9.128;2023-03-13T00:10:55;8.10;99.90
10312;DHT22;5201;48.776;9.128;2023-03-13T00:13:21;8.20;99.90
10312;DHT22;5201;48.776;9.128;2023-03-13T00:15:46;8.20;99.90
10312;DHT22;5201;48.776;9.128;2023-03-13T00:18:12;8.30;99.90
10312;DHT22;5201;48.776;9.128;2023-03-13T00:20:38;8.40;99.90
10312;DHT22;5201;48.776;9.128;2023-03-13T00:23:03;5.80;99.90
10312;DHT22;5201;48.776;9.128;2023-03-13T00:25:29;8.50;99.90
10312;DHT22;5201;48.776;9.128;2023-03-13T00:27:55;8.50;99.90
10312;DHT22;5201;48.776;9.128;2023-03-13T00:30:20;8.60;99.90
10312;DHT22;5201;48.776;9.128;2023-03-13T00:32:46;8.50;99.90
10312;DHT22;5201;48.776;9.128;2023-03-13T00:35:13;8.50;99.90
10312;DHT22;5201;48.776;9.128;2023-03-13T00:37:39;8.40;99.90
10312;DHT22;5201;48.776;9.128;2023-03-13T00:40:05;8.40;99.90
10312;DHT22;5201;48.776;9.128;2023-03-13T00:42:32;8.20;99.90
10312;DHT22;5201;48.776;9.128;2023-03-13T00:44:58;8.20;99.90
10312;DHT22;5201;48.776;9.128;2023-03-13T00:47:23;8.20;99.90
10312;DHT22;5201;48.776;9.128;2023-03-13T00:49:49;8.10;99.90
10312;DHT22;5201;48.776;9.128;2023-03-13T00:52:14;8.10;99.90
10312;DHT22;5201;48.776;9.128;2023-03-13T00:54:40;8.10;99.90
10312;DHT22;5201;48.776;9.128;2023-03-13T00:57:06;8.10;99.90
10312;DHT22;5201;48.776;9.128;2023-03-13T00:59:31;8.20;99.90
10312;DHT22;5201;48.776;9.128;2023-03-13T01:01:57;9.40;99.90
10312;DHT22;5201;48.776;9.128;2023-03-13T01:04:23;8.30;99.90
10312;DHT22;5201;48.776;9.128;2023-03-13T01:06:48;8.30;99.90
10312;DHT22;5201;48.776;9.128;2023-03-13T01:09:15;8.40;99.90
10312;DHT22;5201;48.776;9.128;2023-03-13T01:11:42;8.50;99.90
10312;DHT22;5201;48.776;9.128;2023-03-13T01:14:16;8.60;99.90
10312;DHT22;5201;48.776;9.128;2023-03-13T01:16:42;8.60;99.90
10312;DHT22;5201;48.776;9.128;2023-03-13T01:19:18;8.60;99.90
10312;DHT22;5201;48.776;9.128;2023-03-13T01:21:44;8.80;99.90
10312;DHT22;5201;48.776;9.128;2023-03-13T01:24:10;8.90;99.90
10312;DHT22;5201;48.776;9.128;2023-03-13T01:26:36;8.80;99.90
10312;DHT22;5201;48.776;9.128;2023-03-13T01:29:02;8.80;99.90
10312;DHT22;5201;48.776;9.128;2023-03-13T01:31:30;8.90;99.90
10312;DHT22;5201;48.776;9.128;2023-03-13T01:33:58;8.80;99.90
10312;DHT22;5201;48.776;9.128;2023-03-13T01:36:25;8.60;99.90
10312;DHT22;5201;48.776;9.128;2023-03-13T01:38:54;9.00;99.90
10312;DHT22;5201;48.776;9.128;2023-03-13T01:41:22;8.70;99.90
10312;DHT22;5201;48.776;9.128;2023-03-13T01:43:48;8.80;99.90
10312;DHT22;5201;48.776;9.128;2023-03-13T01:46:19;8.80;99.90
10312;DHT22;5201;48.776;9.128;2023-03-13T01:51:51;8.70;99.90
10312;DHT22;5201;48.776;9.128;2023-03-13T01:54:38;8.70;99.90
10312;DHT22;5201;48.776;9.128;2023-03-13T01:57:12;8.80;99.90
10312;DHT22;5201;48.776;9.128;2023-03-13T01:59:58;8.90;99.90
10312;DHT22;5201;48.776;9.128;2023-03-13T02:02:25;9.00;99.90
10312;DHT22;5201;48.776;9.128;2023-03-13T02:04:55;9.00;99.90
10312;DHT22;5201;48.776;9.128;2023-03-13T02:07:33;9.00;99.90
10312;DHT22;5201;48.776;9.128;2023-03-13T02:10:00;9.10;99.90
10312;DHT22;5201;48.776;9.128;2023-03-13T02:14:57;9.10;99.90
10312;DHT22;5201;48.776;9.128;2023-03-13T02:17:24;9.00;99.90
10312;DHT22;5201;48.776;9.128;2023-03-13T02:19:51;9.10;99.90
10312;DHT22;5201;48.776;9.128;2023-03-13T02:22:41;9.20;99.90
10312;DHT22;5201;48.776;9.128;2023-03-13T02:27:35;9.20;99.90
10312;DHT22;5201;48.776;9.128;2023-03-13T02:30:02;9.20;99.90
10312;DHT22;5201;48.776;9.128;2023-03-13T02:32:30;9.10;99.90
10312;DHT22;5201;48.776;9.128;2023-03-13T02:35:00;9.10;99.90
10312;DHT22;5201;48.776;9.128;2023-03-13T02:37:28;9.10;99.90
10312;DHT22;5201;48.776;9.128;2023-03-13T02:39:56;9.60;99.90
10312;DHT22;5201;48.776;9.128;2023-03-13T02:42:23;9.10;99.90
10312;DHT22;5201;48.776;9.128;2023-03-13T02:44:49;10.80;99.90
10312;DHT22;5201;48.776;9.128;2023-03-13T02:47:18;9.30;99.90
10312;DHT22;5201;48.776;9.128;2023-03-13T02:49:44;11.40;99.90
10312;DHT22;5201;48.776;9.128;2023-03-13T02:52:32;9.20;99.90
10312;DHT22;5201;48.776;9.128;2023-03-13T02:55:02;9.30;99.90
10312;DHT22;5201;48.776;9.128;2023-03-13T02:57:29;9.30;99.90
10312;DHT22;5201;48.776;9.128;2023-03-13T02:59:56;9.30;99.90
10312;DHT22;5201;48.776;9.128;2023-03-13T03:02:22;9.30;99.90
10312;DHT22;5201;48.776;9.128;2023-03-13T03:04:47;9.40;99.90
10312;DHT22;5201;48.776;9.128;2023-03-13T03:07:13;9.30;99.90
10312;DHT22;5201;48.776;9.128;2023-03-13T03:09:38;9.30;99.90
10312;DHT22;5201;48.776;9.128;2023-03-13T03:12:04;9.40;99.90
10312;DHT22;5201;48.776;9.128;2023-03-13T03:14:30;9.40;99.90
10312;DHT22;5201;48.776;9.128;2023-03-13T03:16:55;9.50;99.90
10312;DHT22;5201;48.776;9.128;2023-03-13T03:19:21;9.50;99.90
10312;DHT22;5201;48.776;9.128;2023-03-13T03:21:46;9.60;99.90
10312;DHT22;5201;48.776;9.128;2023-03-13T03:24:14;9.60;99.90
10312;DHT22;5201;48.776;9.128;2023-03-13T03:26:39;9.70;99.90
10312;DHT22;5201;48.776;9.128;2023-03-13T03:29:05;9.60;99.90
10312;DHT22;5201;48.776;9.128;2023-03-13T03:31:32;9.60;99.90
10312;DHT22;5201;48.776;9.128;2023-03-13T03:33:58;9.60;99.90
10312;DHT22;5201;48.776;9.128;2023-03-13T03:36:24;9.60;99.90
10312;DHT22;5201;48.776;9.128;2023-03-13T03:38:50;9.60;99.90
10312;DHT22;5201;48.776;9.128;2023-03-13T03:41:16;9.60;99.90
10312;DHT22;5201;48.776;9.128;2023-03-13T03:43:42;9.60;99.90
10312;DHT22;5201;48.776;9.128;2023-03-13T03:46:08;9.70;99.90
10312;DHT22;5201;48.776;9.128;2023-03-13T03:48:34;9.80;99.90
10312;DHT22;5201;48.776;9.128;2023-03-13T03:51:00;9.80;99.90
10312;DHT22;5201;48.776;9.128;2023-03-13T03:53:26;9.80;99.90
10312;DHT22;5201;48.776;9.128;2023-03-13T03:55:52;10.00;99.90
10312;DHT22;5201;48.776;9.128;2023-03-13T03:58:18;10.10;99.90
10312;DHT22;5201;48.776;9.128;2023-03-13T04:00:45;10.20;99.90
10312;DHT22;5201;48.776;9.128;2023-03-13T04:03:11;10.20;99.90
10312;DHT22;5201;48.776;9.128;2023-03-13T04:05:37;10.20;99.90
10312;DHT22;5201;48.776;9.128;2023-03-13T04:08:03;10.20;99.90
10312;DHT22;5201;48.776;9.128;2023-03-13T04:10:29;10.30;99.90
10312;DHT22;5201;48.776;9.128;2023-03-13T04:12:55;10.40;99.90
10312;DHT22;5201;48.776;9.128;2023-03-13T04:15:20;10.50;99.90
10312;DHT22;5201;48.776;9.128;2023-03-13T04:17:46;10.50;99.90
10312;DHT22;5201;48.776;9.128;2023-03-13T04:20:11;10.60;99.90
10312;DHT22;5201;48.776;9.128;2023-03-13T04:22:39;10.70;99.90
10312;DHT22;5201;48.776;9.128;2023-03-13T04:25:05;10.80;99.90
10312;DHT22;5201;48.776;9.128;2023-03-13T04:27:32;10.80;99.90
10312;DHT22;5201;48.776;9.128;2023-03-13T04:29:57;10.90;99.90
10312;DHT22;5201;48.776;9.128;2023-03-13T04:32:23;10.90;99.90
10312;DHT22;5201;48.776;9.128;2023-03-13T04:34:49;11.00;99.90
10312;DHT22;5201;48.776;9.128;2023-03-13T04:37:14;11.20;99.90
10312;DHT22;5201;48.776;9.128;2023-03-13T04:39:40;11.80;99.90
10312;DHT22;5201;48.776;9.128;2023-03-13T04:42:06;11.10;99.90
10312;DHT22;5201;48.776;9.128;2023-03-13T04:44:33;11.10;99.90
10312;DHT22;5201;48.776;9.128;2023-03-13T04:46:58;11.10;99.90
10312;DHT22;5201;48.776;9.128;2023-03-13T04:49:24;11.00;99.90
10312;DHT22;5201;48.776;9.128;2023-03-13T04:51:49;11.10;99.90
10312;DHT22;5201;48.776;9.128;2023-03-13T04:54:15;11.70;99.90
10312;DHT22;5201;48.776;9.128;2023-03-13T04:56:41;12.30;99.90
10312;DHT22;5201;48.776;9.128;2023-03-13T04:59:06;11.30;99.90
10312;DHT22;5201;48.776;9.128;2023-03-13T05:01:32;12.00;99.90
10312;DHT22;5201;48.776;9.128;2023-03-13T05:03:57;11.10;99.90
10312;DHT22;5201;48.776;9.128;2023-03-13T05:06:23;11.00;99.90
10312;DHT22;5201;48.776;9.128;2023-03-13T05:08:48;11.00;99.90
10312;DHT22;5201;48.776;9.128;2023-03-13T05:11:14;11.00;99.90
10312;DHT22;5201;48.776;9.128;2023-03-13T05:13:40;11.20;99.90
10312;DHT22;5201;48.776;9.128;2023-03-13T05:16:05;11.30;99.90
10312;DHT22;5201;48.776;9.128;2023-03-13T05:18:31;11.30;99.90
10312;DHT22;5201;48.776;9.128;2023-03-13T05:20:57;11.30;99.90
10312;DHT22;5201;48.776;9.128;2023-03-13T05:23:22;11.20;99.90
10312;DHT22;5201;48.776;9.128;2023-03-13T05:25:48;11.20;99.90
10312;DHT22;5201;48.776;9.128;2023-03-13T05:28:13;11.10;99.90
10312;DHT22;5201;48.776;9.128;2023-03-13T05:30:39;11.60;99.90
10312;DHT22;5201;48.776;9.128;2023-03-13T05:33:05;11.20;99.90
10312;DHT22;5201;48.776;9.128;2023-03-13T05:35:30;11.30;99.90
10312;DHT22;5201;48.776;9.128;2023-03-13T05:37:56;11.30;99.90
10312;DHT22;5201;48.776;9.128;2023-03-13T05:40:21;11.30;99.90
10312;DHT22;5201;48.776;9.128;2023-03-13T05:42:47;11.30;99.90
10312;DHT22;5201;48.776;9.128;2023-03-13T05:45:12;11.30;99.90
10312;DHT22;5201;48.776;9.128;2023-03-13T05:47:38;11.20;99.90
10312;DHT22;5201;48.776;9.128;2023-03-13T05:50:05;11.40;99.90
10312;DHT22;5201;48.776;9.128;2023-03-13T05:52:32;11.30;99.90
10312;DHT22;5201;48.776;9.128;2023-03-13T05:54:58;11.30;99.90
10312;DHT22;5201;48.776;9.128;2023-03-13T05:57:23;11.40;99.90
10312;DHT22;5201;48.776;9.128;2023-03-13T05:59:49;11.40;99.90
10312;DHT22;5201;48.776;9.128;2023-03-13T06:02:15;11.50;99.90
10312;DHT22;5201;48.776;9.128;2023-03-13T06:04:40;11.30;99.90
10312;DHT22;5201;48.776;9.128;2023-03-13T06:07:06;11.00;99.90
10312;DHT22;5201;48.776;9.128;2023-03-13T06:09:32;11.30;99.90
10312;DHT22;5201;48.776;9.128;2023-03-13T06:11:58;11.40;99.90
10312;DHT22;5201;48.776;9.128;2023-03-13T06:14:24;11.40;99.90
10312;DHT22;5201;48.776;9.128;2023-03-13T06:16:49;11.50;99.90
10312;DHT22;5201;48.776;9.128;2023-03-13T06:19:15;11.50;99.90
10312;DHT22;5201;48.776;9.128;2023-03-13T06:21:41;11.70;99.90
10312;DHT22;5201;48.776;9.128;2023-03-13T06:24:06;12.10;99.90
10312;DHT22;5201;48.776;9.128;2023-03-13T06:26:32;11.60;99.90
10312;DHT22;5201;48.776;9.128;2023-03-13T06:28:58;12.90;99.90
10312;DHT22;5201;48.776;9.128;2023-03-13T06:31:23;11.70;99.90
10312;DHT22;5201;48.776;9.128;2023-03-13T06:33:52;11.70;99.90
10312;DHT22;5201;48.776;9.128;2023-03-13T06:36:18;12.10;99.90
10312;DHT22;5201;48.776;9.128;2023-03-13T06:38:44;11.80;99.90
10312;DHT22;5201;48.776;9.128;2023-03-13T06:41:10;11.90;99.90
10312;DHT22;5201;48.776;9.128;2023-03-13T06:43:35;12.00;99.90
10312;DHT22;5201;48.776;9.128;2023-03-13T06:46:04;11.90;99.90
10312;DHT22;5201;48.776;9.128;2023-03-13T06:48:30;11.80;99.90
10312;DHT22;5201;48.776;9.128;2023-03-13T06:50:55;11.80;99.90
10312;DHT22;5201;48.776;9.128;2023-03-13T06:53:21;11.80;99.90
10312;DHT22;5201;48.776;9.128;2023-03-13T06:55:47;12.00;99.90
10312;DHT22;5201;48.776;9.128;2023-03-13T06:58:13;12.00;99.90
10312;DHT22;5201;48.776;9.128;2023-03-13T07:00:39;12.00;99.90
10312;DHT22;5201;48.776;9.128;2023-03-13T07:03:06;12.00;99.90
10312;DHT22;5201;48.776;9.128;2023-03-13T07:05:32;12.10;99.90
10312;DHT22;5201;48.776;9.128;2023-03-13T07:07:58;12.60;99.90
10312;DHT22;5201;48.776;9.128;2023-03-13T07:10:24;12.50;99.90
10312;DHT22;5201;48.776;9.128;2023-03-13T07:12:49;12.40;99.90
10312;DHT22;5201;48.776;9.128;2023-03-13T07:15:15;12.10;99.90
10312;DHT22;5201;48.776;9.128;2023-03-13T07:17:40;12.10;99.90
10312;DHT22;5201;48.776;9.128;2023-03-13T07:20:06;12.10;99.90
10312;DHT22;5201;48.776;9.128;2023-03-13T07:22:35;12.20;99.90
10312;DHT22;5201;48.776;9.128;2023-03-13T07:25:01;12.20;99.90
10312;DHT22;5201;48.776;9.128;2023-03-13T07:27:26;12.10;99.90
10312;DHT22;5201;48.776;9.128;2023-03-13T07:29:52;12.20;99.90
10312;DHT22;5201;48.776;9.128;2023-03-13T07:32:17;12.30;99.90
10312;DHT22;5201;48.776;9.128;2023-03-13T07:34:43;12.50;99.90
10312;DHT22;5201;48.776;9.128;2023-03-13T07:37:13;12.20;99.90
10312;DHT22;5201;48.776;9.128;2023-03-13T07:39:39;12.10;99.90
10312;DHT22;5201;48.776;9.128;2023-03-13T07:42:05;12.10;99.90
10312;DHT22;5201;48.776;9.128;2023-03-13T07:44:30;12.10;99.90
10312;DHT22;5201;48.776;9.128;2023-03-13T07:46:59;12.80;99.90
10312;DHT22;5201;48.776;9.128;2023-03-13T07:49:25;12.20;99.90
10312;DHT22;5201;48.776;9.128;2023-03-13T07:51:50;12.30;99.90
10312;DHT22;5201;48.776;9.128;2023-03-13T07:54:16;12.20;99.90
10312;DHT22;5201;48.776;9.128;2023-03-13T07:56:41;12.30;99.90
10312;DHT22;5201;48.776;9.128;2023-03-13T07:59:07;12.30;99.90
10312;DHT22;5201;48.776;9.128;2023-03-13T08:01:33;12.30;99.90
10312;DHT22;5201;48.776;9.128;2023-03-13T08:03:59;12.20;99.90
10312;DHT22;5201;48.776;9.128;2023-03-13T08:06:32;12.30;99.90
10312;DHT22;5201;48.776;9.128;2023-03-13T08:09:00;12.40;99.90
10312;DHT22;5201;48.776;9.128;2023-03-13T08:11:26;12.50;99.90
10312;DHT22;5201;48.776;9.128;2023-03-13T08:13:53;12.60;99.90
10312;DHT22;5201;48.776;9.128;2023-03-13T08:16:24;12.60;99.90
10312;DHT22;5201;48.776;9.128;2023-03-13T08:18:57;12.70;99.90
10312;DHT22;5201;48.776;9.128;2023-03-13T08:21:25;12.90;99.90
10312;DHT22;5201;48.776;9.128;2023-03-13T08:23:55;13.30;99.90
10312;DHT22;5201;48.776;9.128;2023-03-13T08:26:25;13.10;99.90
10312;DHT22;5201;48.776;9.128;2023-03-13T08:28:56;13.20;99.90
10312;DHT22;5201;48.776;9.128;2023-03-13T08:31:24;13.50;99.90
10312;DHT22;5201;48.776;9.128;2023-03-13T08:33:50;13.20;99.90
10312;DHT22;5201;48.776;9.128;2023-03-13T08:36:18;13.50;99.90
10312;DHT22;5201;48.776;9.128;2023-03-13T08:38:46;13.70;99.90
10312;DHT22;5201;48.776;9.128;2023-03-13T08:41:20;13.70;99.90
10312;DHT22;5201;48.776;9.128;2023-03-13T08:43:46;13.80;99.90
10312;DHT22;5201;48.776;9.128;2023-03-13T08:46:12;13.80;99.90
10312;DHT22;5201;48.776;9.128;2023-03-13T08:48:38;13.70;99.90
10312;DHT22;5201;48.776;9.128;2023-03-13T08:51:05;13.80;99.90
10312;DHT22;5201;48.776;9.128;2023-03-13T08:53:32;13.70;99.90
10312;DHT22;5201;48.776;9.128;2023-03-13T08:55:59;12.10;99.90
10312;DHT22;5201;48.776;9.128;2023-03-13T08:58:24;13.70;99.90
10312;DHT22;5201;48.776;9.128;2023-03-13T09:00:50;14.00;99.90
10312;DHT22;5201;48.776;9.128;2023-03-13T09:03:16;13.50;99.90
10312;DHT22;5201;48.776;9.128;2023-03-13T09:05:42;13.60;99.90
10312;DHT22;5201;48.776;9.128;2023-03-13T09:08:08;13.70;99.90
10312;DHT22;5201;48.776;9.128;2023-03-13T09:10:34;13.60;99.90
10312;DHT22;5201;48.776;9.128;2023-03-13T09:13:00;13.60;99.90
10312;DHT22;5201;48.776;9.128;2023-03-13T09:15:26;13.60;99.90
10312;DHT22;5201;48.776;9.128;2023-03-13T09:17:51;13.80;99.90
10312;DHT22;5201;48.776;9.128;2023-03-13T09:20:17;13.80;99.90
10312;DHT22;5201;48.776;9.128;2023-03-13T09:22:44;13.80;99.90
10312;DHT22;5201;48.776;9.128;2023-03-13T09:25:11;13.80;99.90
10312;DHT22;5201;48.776;9.128;2023-03-13T09:27:37;13.80;99.90
10312;DHT22;5201;48.776;9.128;2023-03-13T09:30:03;13.80;99.90
10312;DHT22;5201;48.776;9.128;2023-03-13T09:32:28;14.10;99.90
10312;DHT22;5201;48.776;9.128;2023-03-13T09:34:54;14.20;99.90
10312;DHT22;5201;48.776;9.128;2023-03-13T09:37:20;14.30;99.90
10312;DHT22;5201;48.776;9.128;2023-03-13T09:39:47;14.40;99.90
10312;DHT22;5201;48.776;9.128;2023-03-13T09:42:19;14.50;99.90
10312;DHT22;5201;48.776;9.128;2023-03-13T09:44:54;14.60;99.90
10312;DHT22;5201;48.776;9.128;2023-03-13T09:47:29;14.70;99.90
10312;DHT22;5201;48.776;9.128;2023-03-13T09:50:03;14.80;99.90
10312;DHT22;5201;48.776;9.128;2023-03-13T09:52:34;15.20;99.90
10312;DHT22;5201;48.776;9.128;2023-03-13T09:55:13;15.30;99.90
10312;DHT22;5201;48.776;9.128;2023-03-13T09:57:47;15.50;99.90
10312;DHT22;5201;48.776;9.128;2023-03-13T10:00:24;15.90;99.90
10312;DHT22;5201;48.776;9.128;2023-03-13T10:03:28;16.10;99.90
10312;DHT22;5201;48.776;9.128;2023-03-13T10:06:11;16.10;99.90
10312;DHT22;5201;48.776;9.128;2023-03-13T10:08:37;16.30;99.90
10312;DHT22;5201;48.776;9.128;2023-03-13T10:11:26;16.50;99.90
10312;DHT22;5201;48.776;9.128;2023-03-13T10:19:50;17.80;99.90
10312;DHT22;5201;48.776;9.128;2023-03-13T10:22:23;18.60;99.90
10312;DHT22;5201;48.776;9.128;2023-03-13T10:24:59;19.00;99.90
10312;DHT22;5201;48.776;9.128;2023-03-13T10:27:26;19.40;99.90
10312;DHT22;5201;48.776;9.128;2023-03-13T10:29:52;19.10;99.90
10312;DHT22;5201;48.776;9.128;2023-03-13T10:32:18;19.30;99.90
10312;DHT22;5201;48.776;9.128;2023-03-13T10:34:57;19.30;99.90
10312;DHT22;5201;48.776;9.128;2023-03-13T10:39:50;18.70;99.90
10312;DHT22;5201;48.776;9.128;2023-03-13T10:44:45;17.90;99.90
10312;DHT22;5201;48.776;9.128;2023-03-13T10:47:13;17.80;99.90
10312;DHT22;5201;48.776;9.128;2023-03-13T10:49:50;17.60;99.90
10312;DHT22;5201;48.776;9.128;2023-03-13T10:52:43;17.50;99.90
10312;DHT22;5201;48.776;9.128;2023-03-13T10:55:11;17.70;99.90
10312;DHT22;5201;48.776;9.128;2023-03-13T10:57:38;18.00;99.90
10312;DHT22;5201;48.776;9.128;2023-03-13T11:02:56;18.70;99.90
10312;DHT22;5201;48.776;9.128;2023-03-13T11:07:51;18.80;99.90
10312;DHT22;5201;48.776;9.128;2023-03-13T11:10:25;18.80;99.90
10312;DHT22;5201;48.776;9.128;2023-03-13T11:12:53;18.50;99.90
10312;DHT22;5201;48.776;9.128;2023-03-13T11:15:31;18.10;99.90
10312;DHT22;5201;48.776;9.128;2023-03-13T11:18:14;17.70;99.90
10312;DHT22;5201;48.776;9.128;2023-03-13T11:20:44;17.70;99.90
10312;DHT22;5201;48.776;9.128;2023-03-13T11:25:53;17.80;99.90
10312;DHT22;5201;48.776;9.128;2023-03-13T11:33:39;18.10;99.90
10312;DHT22;5201;48.776;9.128;2023-03-13T11:39:15;18.50;99.90
10312;DHT22;5201;48.776;9.128;2023-03-13T11:41:54;18.40;99.90
10312;DHT22;5201;48.776;9.128;2023-03-13T11:47:13;18.50;99.90
10312;DHT22;5201;48.776;9.128;2023-03-13T11:57:34;18.60;99.90
10312;DHT22;5201;48.776;9.128;2023-03-13T12:05:15;18.80;99.90
10312;DHT22;5201;48.776;9.128;2023-03-13T12:08:10;18.90;99.90
10312;DHT22;5201;48.776;9.128;2023-03-13T12:10:46;18.90;99.90
10312;DHT22;5201;48.776;9.128;2023-03-13T12:13:29;19.00;99.90
10312;DHT22;5201;48.776;9.128;2023-03-13T12:16:00;19.10;99.90
10312;DHT22;5201;48.776;9.128;2023-03-13T12:18:42;19.60;99.90
10312;DHT22;5201;48.776;9.128;2023-03-13T12:21:29;19.40;99.90
10312;DHT22;5201;48.776;9.128;2023-03-13T12:31:48;19.70;99.90
10312;DHT22;5201;48.776;9.128;2023-03-13T12:34:23;19.90;99.90
10312;DHT22;5201;48.776;9.128;2023-03-13T12:44:58;19.80;99.90
10312;DHT22;5201;48.776;9.128;2023-03-13T12:47:31;19.70;99.90
10312;DHT22;5201;48.776;9.128;2023-03-13T12:55:43;19.50;99.90
10312;DHT22;5201;48.776;9.128;2023-03-13T12:58:37;19.50;99.90
10312;DHT22;5201;48.776;9.128;2023-03-13T13:01:05;19.60;99.90
10312;DHT22;5201;48.776;9.128;2023-03-13T13:03:34;19.80;99.90
10312;DHT22;5201;48.776;9.128;2023-03-13T13:08:47;19.60;99.90
10312;DHT22;5201;48.776;9.128;2023-03-13T13:13:58;19.70;99.90
10312;DHT22;5201;48.776;9.128;2023-03-13T13:16:25;19.80;99.90
10312;DHT22;5201;48.776;9.128;2023-03-13T13:18:51;19.80;99.90
10312;DHT22;5201;48.776;9.128;2023-03-13T13:21:21;19.90;99.90
10312;DHT22;5201;48.776;9.128;2023-03-13T13:23:48;19.90;99.90
10312;DHT22;5201;48.776;9.128;2023-03-13T13:28:59;19.80;99.90
10312;DHT22;5201;48.776;9.128;2023-03-13T13:31:54;19.90;99.90
10312;DHT22;5201;48.776;9.128;2023-03-13T13:39:48;20.20;99.90
10312;DHT22;5201;48.776;9.128;2023-03-13T13:42:36;20.20;99.90
10312;DHT22;5201;48.776;9.128;2023-03-13T13:47:44;20.00;99.90
10312;DHT22;5201;48.776;9.128;2023-03-13T13:50:28;20.00;99.90
10312;DHT22;5201;48.776;9.128;2023-03-13T13:53:28;20.00;99.90
10312;DHT22;5201;48.776;9.128;2023-03-13T13:55:54;19.90;99.90
10312;DHT22;5201;48.776;9.128;2023-03-13T13:58:24;20.00;99.90
10312;DHT22;5201;48.776;9.128;2023-03-13T14:01:03;20.10;99.90
10312;DHT22;5201;48.776;9.128;2023-03-13T14:03:38;20.00;99.90
10312;DHT22;5201;48.776;9.128;2023-03-13T14:06:16;20.10;99.90
10312;DHT22;5201;48.776;9.128;2023-03-13T14:08:44;20.00;99.90
10312;DHT22;5201;48.776;9.128;2023-03-13T14:11:27;19.90;99.90
10312;DHT22;5201;48.776;9.128;2023-03-13T14:14:19;19.80;99.90
10312;DHT22;5201;48.776;9.128;2023-03-13T14:16:57;19.90;99.90
10312;DHT22;5201;48.776;9.128;2023-03-13T14:19:29;20.10;99.90
10312;DHT22;5201;48.776;9.128;2023-03-13T14:22:04;19.90;99.90
10312;DHT22;5201;48.776;9.128;2023-03-13T14:24:30;20.00;99.90
10312;DHT22;5201;48.776;9.128;2023-03-13T14:26:55;20.20;99.90
10312;DHT22;5201;48.776;9.128;2023-03-13T14:29:21;20.20;99.90
10312;DHT22;5201;48.776;9.128;2023-03-13T14:31:55;20.20;99.90
10312;DHT22;5201;48.776;9.128;2023-03-13T14:34:21;20.30;99.80
10312;DHT22;5201;48.776;9.128;2023-03-13T14:36:52;20.30;99.00
10312;DHT22;5201;48.776;9.128;2023-03-13T14:39:36;20.30;99.10
10312;DHT22;5201;48.776;9.128;2023-03-13T14:42:09;20.30;99.00
10312;DHT22;5201;48.776;9.128;2023-03-13T14:44:36;20.30;98.90
10312;DHT22;5201;48.776;9.128;2023-03-13T14:49:39;20.10;98.90
10312;DHT22;5201;48.776;9.128;2023-03-13T14:52:12;20.10;99.10
10312;DHT22;5201;48.776;9.128;2023-03-13T14:54:55;20.20;98.90
10312;DHT22;5201;48.776;9.128;2023-03-13T14:57:23;20.10;99.10
10312;DHT22;5201;48.776;9.128;2023-03-13T14:59:50;20.10;99.30
10312;DHT22;5201;48.776;9.128;2023-03-13T15:02:26;20.10;99.20
10312;DHT22;5201;48.776;9.128;2023-03-13T15:05:06;20.10;99.60
10312;DHT22;5201;48.776;9.128;2023-03-13T15:07:41;20.00;99.50
10312;DHT22;5201;48.776;9.128;2023-03-13T15:10:30;20.10;99.50
10312;DHT22;5201;48.776;9.128;2023-03-13T15:12:56;20.20;99.50
10312;DHT22;5201;48.776;9.128;2023-03-13T15:15:22;20.10;99.60
10312;DHT22;5201;48.776;9.128;2023-03-13T15:17:48;20.10;99.60
10312;DHT22;5201;48.776;9.128;2023-03-13T15:20:14;20.00;99.50
10312;DHT22;5201;48.776;9.128;2023-03-13T15:22:42;19.90;99.80
10312;DHT22;5201;48.776;9.128;2023-03-13T15:25:17;19.90;99.90
10312;DHT22;5201;48.776;9.128;2023-03-13T15:27:42;20.00;99.80
10312;DHT22;5201;48.776;9.128;2023-03-13T15:30:14;20.00;99.70
10312;DHT22;5201;48.776;9.128;2023-03-13T15:32:40;20.00;99.80
10312;DHT22;5201;48.776;9.128;2023-03-13T15:35:31;20.10;99.60
10312;DHT22;5201;48.776;9.128;2023-03-13T15:37:58;20.00;99.60
10312;DHT22;5201;48.776;9.128;2023-03-13T15:40:25;19.90;99.80
10312;DHT22;5201;48.776;9.128;2023-03-13T15:42:52;19.90;99.90
10312;DHT22;5201;48.776;9.128;2023-03-13T15:45:18;19.90;99.60
10312;DHT22;5201;48.776;9.128;2023-03-13T15:47:44;20.10;99.80
10312;DHT22;5201;48.776;9.128;2023-03-13T15:50:15;19.90;99.70
10312;DHT22;5201;48.776;9.128;2023-03-13T15:52:40;20.00;99.70
10312;DHT22;5201;48.776;9.128;2023-03-13T15:55:06;20.00;99.90
10312;DHT22;5201;48.776;9.128;2023-03-13T15:57:33;20.00;99.80
10312;DHT22;5201;48.776;9.128;2023-03-13T16:00:00;19.90;99.80
10312;DHT22;5201;48.776;9.128;2023-03-13T16:02:26;20.00;99.90
10312;DHT22;5201;48.776;9.128;2023-03-13T16:04:51;20.20;99.90
10312;DHT22;5201;48.776;9.128;2023-03-13T16:07:19;19.90;99.90
10312;DHT22;5201;48.776;9.128;2023-03-13T16:09:45;19.90;99.90
10312;DHT22;5201;48.776;9.128;2023-03-13T16:12:11;19.90;99.90
10312;DHT22;5201;48.776;9.128;2023-03-13T16:14:37;19.80;99.90
10312;DHT22;5201;48.776;9.128;2023-03-13T16:17:16;19.70;99.90
10312;DHT22;5201;48.776;9.128;2023-03-13T16:19:43;19.80;99.90
10312;DHT22;5201;48.776;9.128;2023-03-13T16:22:09;19.70;99.90
10312;DHT22;5201;48.776;9.128;2023-03-13T16:24:34;19.70;99.90
10312;DHT22;5201;48.776;9.128;2023-03-13T16:27:00;19.80;99.90
10312;DHT22;5201;48.776;9.128;2023-03-13T16:29:26;19.80;99.90
10312;DHT22;5201;48.776;9.128;2023-03-13T16:31:51;19.70;99.90
10312;DHT22;5201;48.776;9.128;2023-03-13T16:34:17;19.60;99.90
10312;DHT22;5201;48.776;9.128;2023-03-13T16:36:43;19.40;99.90
10312;DHT22;5201;48.776;9.128;2023-03-13T16:39:14;19.40;99.90
10312;DHT22;5201;48.776;9.128;2023-03-13T16:41:40;19.30;99.90
10312;DHT22;5201;48.776;9.128;2023-03-13T16:44:06;19.30;99.90
10312;DHT22;5201;48.776;9.128;2023-03-13T16:46:40;19.10;99.90
10312;DHT22;5201;48.776;9.128;2023-03-13T16:49:12;19.20;99.90
10312;DHT22;5201;48.776;9.128;2023-03-13T16:51:38;19.10;99.90
10312;DHT22;5201;48.776;9.128;2023-03-13T16:54:04;19.10;99.90
10312;DHT22;5201;48.776;9.128;2023-03-13T16:56:39;18.90;99.90
10312;DHT22;5201;48.776;9.128;2023-03-13T16:59:10;18.90;99.90
10312;DHT22;5201;48.776;9.128;2023-03-13T17:01:36;18.80;99.90
10312;DHT22;5201;48.776;9.128;2023-03-13T17:04:02;18.80;99.90
10312;DHT22;5201;48.776;9.128;2023-03-13T17:06:31;18.80;99.90
10312;DHT22;5201;48.776;9.128;2023-03-13T17:08:58;18.80;99.90
10312;DHT22;5201;48.776;9.128;2023-03-13T17:11:25;18.70;99.90
10312;DHT22;5201;48.776;9.128;2023-03-13T17:13:52;18.60;99.90
10312;DHT22;5201;48.776;9.128;2023-03-13T17:18:47;18.40;99.90
10312;DHT22;5201;48.776;9.128;2023-03-13T17:21:26;18.30;99.90
10312;DHT22;5201;48.776;9.128;2023-03-13T17:23:53;18.30;99.90
10312;DHT22;5201;48.776;9.128;2023-03-13T17:26:21;18.30;99.90
10312;DHT22;5201;48.776;9.128;2023-03-13T17:28:49;18.20;99.90
10312;DHT22;5201;48.776;9.128;2023-03-13T17:31:16;18.10;99.90
10312;DHT22;5201;48.776;9.128;2023-03-13T17:33:42;18.00;99.90